sensor_id;sensor_type;location;lat;lon;timestamp;P1;durP1;ratioP1;P2;durP2;ratioP2
50459;SDS011;36385;51.644;7.098;2022-11-18T00:01:22;7.45;;;3.63;;
50459;SDS011;36385;51.644;7.098;2022-11-18T00:03:48;7.22;;;3.92;;
50459;SDS011;36385;51.644;7.098;2022-11-18T00:06:15;8.55;;;3.80;;
50459;SDS011;36385;51.644;7.098;2022-11-18T00:08:43;7.80;;;3.30;;
50459;SDS011;36385;51.644;7.098;2022-11-18T00:11:12;7.45;;;3.22;;
50459;SDS011;36385;51.644;7.098;2022-11-18T00:14:02;5.45;;;2.80;;
50459;SDS011;36385;51.644;7.098;2022-11-18T00:16:54;7.03;;;2.88;;
50459;SDS011;36385;51.644;7.098;2022-11-18T00:19:28;6.70;;;2.88;;
50459;SDS011;36385;51.644;7.098;2022-11-18T00:21:58;8.18;;;3.20;;
50459;SDS011;36385;51.644;7.098;2022-11-18T00:24:25;7.00;;;3.10;;
50459;SDS011;36385;51.644;7.098;2022-11-18T00:26:51;6.15;;;3.17;;
50459;SDS011;36385;51.644;7.098;2022-11-18T00:29:17;6.88;;;3.13;;
50459;SDS011;36385;51.644;7.098;2022-11-18T00:31:44;7.47;;;3.40;;
50459;SDS011;36385;51.644;7.098;2022-11-18T00:34:10;7.75;;;3.10;;
50459;SDS011;36385;51.644;7.098;2022-11-18T00:36:38;7.75;;;2.80;;
50459;SDS011;36385;51.644;7.098;2022-11-18T00:39:04;8.32;;;2.80;;
50459;SDS011;36385;51.644;7.098;2022-11-18T00:41:30;6.47;;;2.33;;
50459;SDS011;36385;51.644;7.098;2022-11-18T00:46:40;8.05;;;2.83;;
50459;SDS011;36385;51.644;7.098;2022-11-18T00:49:06;7.57;;;2.70;;
50459;SDS011;36385;51.644;7.098;2022-11-18T00:51:32;9.02;;;3.20;;
50459;SDS011;36385;51.644;7.098;2022-11-18T00:53:57;8.93;;;3.38;;
50459;SDS011;36385;51.644;7.098;2022-11-18T00:56:23;7.50;;;3.25;;
50459;SDS011;36385;51.644;7.098;2022-11-18T00:58:48;9.90;;;3.75;;
50459;SDS011;36385;51.644;7.098;2022-11-18T01:01:14;7.80;;;3.45;;
50459;SDS011;36385;51.644;7.098;2022-11-18T01:03:40;9.93;;;4.15;;
50459;SDS011;36385;51.644;7.098;2022-11-18T01:06:05;9.82;;;4.13;;
50459;SDS011;36385;51.644;7.098;2022-11-18T01:08:31;11.43;;;4.78;;
50459;SDS011;36385;51.644;7.098;2022-11-18T01:10:57;12.45;;;6.20;;
50459;SDS011;36385;51.644;7.098;2022-11-18T01:13:43;10.85;;;5.78;;
50459;SDS011;36385;51.644;7.098;2022-11-18T01:16:08;11.43;;;5.03;;
50459;SDS011;36385;51.644;7.098;2022-11-18T01:18:34;10.65;;;4.95;;
50459;SDS011;36385;51.644;7.098;2022-11-18T01:21:00;10.32;;;4.78;;
50459;SDS011;36385;51.644;7.098;2022-11-18T01:23:27;10.20;;;4.95;;
50459;SDS011;36385;51.644;7.098;2022-11-18T01:25:53;9.60;;;4.72;;
50459;SDS011;36385;51.644;7.098;2022-11-18T01:28:22;8.65;;;4.25;;
50459;SDS011;36385;51.644;7.098;2022-11-18T01:30:48;7.72;;;4.07;;
50459;SDS011;36385;51.644;7.098;2022-11-18T01:33:13;9.48;;;4.75;;
50459;SDS011;36385;51.644;7.098;2022-11-18T01:35:40;8.95;;;3.97;;
50459;SDS011;36385;51.644;7.098;2022-11-18T01:38:07;7.45;;;3.30;;
50459;SDS011;36385;51.644;7.098;2022-11-18T01:40:35;8.38;;;2.92;;
50459;SDS011;36385;51.644;7.098;2022-11-18T01:43:02;7.97;;;3.03;;
50459;SDS011;36385;51.644;7.098;2022-11-18T01:45:36;7.50;;;2.67;;
50459;SDS011;36385;51.644;7.098;2022-11-18T01:48:07;8.27;;;2.95;;
50459;SDS011;36385;51.644;7.098;2022-11-18T01:50:43;6.63;;;2.63;;
50459;SDS011;36385;51.644;7.098;2022-11-18T01:53:19;7.15;;;2.45;;
50459;SDS011;36385;51.644;7.098;2022-11-18T01:55:49;6.78;;;2.70;;
50459;SDS011;36385;51.644;7.098;2022-11-18T01:58:21;8.20;;;2.80;;
50459;SDS011;36385;51.644;7.098;2022-11-18T02:00:51;6.30;;;2.80;;
50459;SDS011;36385;51.644;7.098;2022-11-18T02:03:18;7.45;;;2.50;;
50459;SDS011;36385;51.644;7.098;2022-11-18T02:05:46;6.60;;;2.47;;
50459;SDS011;36385;51.644;7.098;2022-11-18T02:08:13;7.50;;;2.65;;
50459;SDS011;36385;51.644;7.098;2022-11-18T02:10:42;6.57;;;2.50;;
50459;SDS011;36385;51.644;7.098;2022-11-18T02:13:07;5.55;;;2.53;;
50459;SDS011;36385;51.644;7.098;2022-11-18T02:21:27;8.45;;;2.90;;
50459;SDS011;36385;51.644;7.098;2022-11-18T02:29:57;7.20;;;2.15;;
50459;SDS011;36385;51.644;7.098;2022-11-18T02:32:25;11.65;;;2.85;;
50459;SDS011;36385;51.644;7.098;2022-11-18T02:35:59;6.57;;;2.30;;
50459;SDS011;36385;51.644;7.098;2022-11-18T02:38:05;7.10;;;2.40;;
50459;SDS011;36385;51.644;7.098;2022-11-18T02:40:38;6.43;;;2.60;;
50459;SDS011;36385;51.644;7.098;2022-11-18T02:43:07;6.85;;;2.58;;
50459;SDS011;36385;51.644;7.098;2022-11-18T02:45:37;6.30;;;2.63;;
50459;SDS011;36385;51.644;7.098;2022-11-18T02:48:08;7.20;;;2.60;;
50459;SDS011;36385;51.644;7.098;2022-11-18T02:50:35;7.53;;;2.65;;
50459;SDS011;36385;51.644;7.098;2022-11-18T02:53:03;8.25;;;2.70;;
50459;SDS011;36385;51.644;7.098;2022-11-18T02:55:32;7.10;;;2.80;;
50459;SDS011;36385;51.644;7.098;2022-11-18T02:58:00;7.57;;;2.70;;
50459;SDS011;36385;51.644;7.098;2022-11-18T03:00:29;6.07;;;2.60;;
50459;SDS011;36385;51.644;7.098;2022-11-18T03:02:55;7.30;;;2.67;;
50459;SDS011;36385;51.644;7.098;2022-11-18T03:05:39;8.00;;;3.10;;
50459;SDS011;36385;51.644;7.098;2022-11-18T03:08:14;6.85;;;2.80;;
50459;SDS011;36385;51.644;7.098;2022-11-18T03:11:27;7.68;;;2.90;;
50459;SDS011;36385;51.644;7.098;2022-11-18T03:13:49;7.30;;;3.10;;
50459;SDS011;36385;51.644;7.098;2022-11-18T03:16:31;8.35;;;3.40;;
50459;SDS011;36385;51.644;7.098;2022-11-18T03:25:04;8.13;;;3.90;;
50459;SDS011;36385;51.644;7.098;2022-11-18T03:27:39;9.48;;;3.40;;
50459;SDS011;36385;51.644;7.098;2022-11-18T03:30:13;8.05;;;3.28;;
50459;SDS011;36385;51.644;7.098;2022-11-18T03:32:42;7.10;;;3.40;;
50459;SDS011;36385;51.644;7.098;2022-11-18T03:35:12;7.80;;;3.20;;
50459;SDS011;36385;51.644;7.098;2022-11-18T03:37:43;8.90;;;3.28;;
50459;SDS011;36385;51.644;7.098;2022-11-18T03:40:16;8.63;;;3.60;;
50459;SDS011;36385;51.644;7.098;2022-11-18T03:42:46;8.57;;;3.72;;
50459;SDS011;36385;51.644;7.098;2022-11-18T03:45:23;6.25;;;3.22;;
50459;SDS011;36385;51.644;7.098;2022-11-18T03:48:02;8.23;;;3.20;;
50459;SDS011;36385;51.644;7.098;2022-11-18T03:50:35;8.80;;;3.38;;
50459;SDS011;36385;51.644;7.098;2022-11-18T03:53:04;8.85;;;3.10;;
50459;SDS011;36385;51.644;7.098;2022-11-18T03:55:33;8.43;;;3.60;;
50459;SDS011;36385;51.644;7.098;2022-11-18T03:58:04;9.05;;;3.58;;
50459;SDS011;36385;51.644;7.098;2022-11-18T04:00:43;9.18;;;4.00;;
50459;SDS011;36385;51.644;7.098;2022-11-18T04:03:12;8.27;;;3.85;;
50459;SDS011;36385;51.644;7.098;2022-11-18T04:05:39;8.77;;;3.92;;
50459;SDS011;36385;51.644;7.098;2022-11-18T04:08:11;8.70;;;3.92;;
50459;SDS011;36385;51.644;7.098;2022-11-18T04:11:01;10.23;;;4.60;;
50459;SDS011;36385;51.644;7.098;2022-11-18T04:13:55;9.90;;;4.53;;
50459;SDS011;36385;51.644;7.098;2022-11-18T04:16:23;10.73;;;4.80;;
50459;SDS011;36385;51.644;7.098;2022-11-18T04:18:49;8.45;;;4.20;;
50459;SDS011;36385;51.644;7.098;2022-11-18T04:21:15;8.32;;;3.95;;
50459;SDS011;36385;51.644;7.098;2022-11-18T04:23:41;10.43;;;4.38;;
50459;SDS011;36385;51.644;7.098;2022-11-18T04:26:07;8.27;;;4.07;;
50459;SDS011;36385;51.644;7.098;2022-11-18T04:28:34;9.98;;;3.97;;
50459;SDS011;36385;51.644;7.098;2022-11-18T04:30:59;8.75;;;3.80;;
50459;SDS011;36385;51.644;7.098;2022-11-18T04:33:25;8.75;;;4.05;;
50459;SDS011;36385;51.644;7.098;2022-11-18T04:35:50;9.45;;;3.85;;
50459;SDS011;36385;51.644;7.098;2022-11-18T04:38:16;9.73;;;3.90;;
50459;SDS011;36385;51.644;7.098;2022-11-18T04:40:42;9.20;;;4.13;;
50459;SDS011;36385;51.644;7.098;2022-11-18T04:43:09;7.50;;;3.85;;
50459;SDS011;36385;51.644;7.098;2022-11-18T04:45:35;10.05;;;3.72;;
50459;SDS011;36385;51.644;7.098;2022-11-18T04:48:00;8.40;;;4.35;;
50459;SDS011;36385;51.644;7.098;2022-11-18T04:50:26;8.80;;;4.03;;
50459;SDS011;36385;51.644;7.098;2022-11-18T04:52:52;10.40;;;4.38;;
50459;SDS011;36385;51.644;7.098;2022-11-18T04:55:17;10.07;;;4.25;;
50459;SDS011;36385;51.644;7.098;2022-11-18T04:57:44;11.45;;;4.70;;
50459;SDS011;36385;51.644;7.098;2022-11-18T05:00:10;7.57;;;4.22;;
50459;SDS011;36385;51.644;7.098;2022-11-18T05:02:36;9.23;;;4.70;;
50459;SDS011;36385;51.644;7.098;2022-11-18T05:05:01;10.07;;;4.47;;
50459;SDS011;36385;51.644;7.098;2022-11-18T05:07:27;8.43;;;4.40;;
50459;SDS011;36385;51.644;7.098;2022-11-18T05:09:53;11.32;;;4.30;;
50459;SDS011;36385;51.644;7.098;2022-11-18T05:12:18;10.15;;;4.60;;
50459;SDS011;36385;51.644;7.098;2022-11-18T05:15:03;8.00;;;4.20;;
50459;SDS011;36385;51.644;7.098;2022-11-18T05:17:28;8.73;;;4.18;;
50459;SDS011;36385;51.644;7.098;2022-11-18T05:19:54;8.38;;;4.32;;
50459;SDS011;36385;51.644;7.098;2022-11-18T05:22:20;10.55;;;4.13;;
50459;SDS011;36385;51.644;7.098;2022-11-18T05:24:45;12.45;;;5.28;;
50459;SDS011;36385;51.644;7.098;2022-11-18T05:27:11;12.27;;;6.28;;
50459;SDS011;36385;51.644;7.098;2022-11-18T05:29:38;12.45;;;5.88;;
50459;SDS011;36385;51.644;7.098;2022-11-18T05:32:03;11.13;;;6.18;;
50459;SDS011;36385;51.644;7.098;2022-11-18T05:34:29;14.65;;;6.13;;
50459;SDS011;36385;51.644;7.098;2022-11-18T05:36:55;11.15;;;5.85;;
50459;SDS011;36385;51.644;7.098;2022-11-18T05:39:21;11.80;;;6.20;;
50459;SDS011;36385;51.644;7.098;2022-11-18T05:41:46;12.25;;;6.60;;
50459;SDS011;36385;51.644;7.098;2022-11-18T05:44:30;12.60;;;6.32;;
50459;SDS011;36385;51.644;7.098;2022-11-18T05:46:56;12.68;;;5.82;;
50459;SDS011;36385;51.644;7.098;2022-11-18T05:49:22;10.77;;;5.30;;
50459;SDS011;36385;51.644;7.098;2022-11-18T05:51:47;10.20;;;5.25;;
50459;SDS011;36385;51.644;7.098;2022-11-18T05:54:13;11.30;;;5.53;;
50459;SDS011;36385;51.644;7.098;2022-11-18T05:56:41;10.25;;;5.30;;
50459;SDS011;36385;51.644;7.098;2022-11-18T05:59:09;10.55;;;4.78;;
50459;SDS011;36385;51.644;7.098;2022-11-18T06:01:37;12.98;;;4.97;;
50459;SDS011;36385;51.644;7.098;2022-11-18T06:04:14;10.52;;;4.63;;
50459;SDS011;36385;51.644;7.098;2022-11-18T06:06:44;10.32;;;4.80;;
50459;SDS011;36385;51.644;7.098;2022-11-18T06:09:13;11.73;;;5.25;;
50459;SDS011;36385;51.644;7.098;2022-11-18T06:11:45;12.00;;;4.97;;
50459;SDS011;36385;51.644;7.098;2022-11-18T06:14:35;12.38;;;5.00;;
50459;SDS011;36385;51.644;7.098;2022-11-18T06:17:08;10.93;;;5.10;;
50459;SDS011;36385;51.644;7.098;2022-11-18T06:19:39;8.52;;;4.47;;
50459;SDS011;36385;51.644;7.098;2022-11-18T06:22:04;11.32;;;4.78;;
50459;SDS011;36385;51.644;7.098;2022-11-18T06:24:31;8.93;;;5.03;;
50459;SDS011;36385;51.644;7.098;2022-11-18T06:26:57;9.60;;;4.93;;
50459;SDS011;36385;51.644;7.098;2022-11-18T06:29:24;10.25;;;5.00;;
50459;SDS011;36385;51.644;7.098;2022-11-18T06:31:50;11.75;;;4.88;;
50459;SDS011;36385;51.644;7.098;2022-11-18T06:34:15;11.02;;;5.22;;
50459;SDS011;36385;51.644;7.098;2022-11-18T06:36:41;11.60;;;5.47;;
50459;SDS011;36385;51.644;7.098;2022-11-18T06:39:07;11.95;;;5.78;;
50459;SDS011;36385;51.644;7.098;2022-11-18T06:41:32;10.63;;;5.25;;
50459;SDS011;36385;51.644;7.098;2022-11-18T06:43:58;12.07;;;5.82;;
50459;SDS011;36385;51.644;7.098;2022-11-18T06:46:24;13.57;;;5.35;;
50459;SDS011;36385;51.644;7.098;2022-11-18T06:49:08;10.52;;;5.20;;
50459;SDS011;36385;51.644;7.098;2022-11-18T06:51:33;9.60;;;4.85;;
50459;SDS011;36385;51.644;7.098;2022-11-18T06:53:59;13.30;;;5.35;;
50459;SDS011;36385;51.644;7.098;2022-11-18T06:56:25;10.82;;;5.47;;
50459;SDS011;36385;51.644;7.098;2022-11-18T06:58:51;12.13;;;5.07;;
50459;SDS011;36385;51.644;7.098;2022-11-18T07:01:23;11.45;;;5.30;;
50459;SDS011;36385;51.644;7.098;2022-11-18T07:03:50;10.68;;;5.45;;
50459;SDS011;36385;51.644;7.098;2022-11-18T07:06:18;10.60;;;5.00;;
50459;SDS011;36385;51.644;7.098;2022-11-18T07:08:46;10.90;;;5.03;;
50459;SDS011;36385;51.644;7.098;2022-11-18T07:11:13;11.93;;;5.40;;
50459;SDS011;36385;51.644;7.098;2022-11-18T07:13:40;10.50;;;5.10;;
50459;SDS011;36385;51.644;7.098;2022-11-18T07:16:07;11.40;;;4.80;;
50459;SDS011;36385;51.644;7.098;2022-11-18T07:18:34;10.52;;;5.15;;
50459;SDS011;36385;51.644;7.098;2022-11-18T07:21:03;12.00;;;5.28;;
50459;SDS011;36385;51.644;7.098;2022-11-18T07:23:31;11.40;;;5.35;;
50459;SDS011;36385;51.644;7.098;2022-11-18T07:25:57;11.50;;;5.15;;
50459;SDS011;36385;51.644;7.098;2022-11-18T07:28:23;12.55;;;5.78;;
50459;SDS011;36385;51.644;7.098;2022-11-18T07:30:49;11.45;;;5.57;;
50459;SDS011;36385;51.644;7.098;2022-11-18T07:33:15;13.48;;;5.88;;
50459;SDS011;36385;51.644;7.098;2022-11-18T07:35:41;10.65;;;5.60;;
50459;SDS011;36385;51.644;7.098;2022-11-18T07:38:06;12.02;;;5.65;;
50459;SDS011;36385;51.644;7.098;2022-11-18T07:40:32;13.80;;;5.90;;
50459;SDS011;36385;51.644;7.098;2022-11-18T07:42:58;9.57;;;5.53;;
50459;SDS011;36385;51.644;7.098;2022-11-18T07:45:23;10.55;;;5.60;;
50459;SDS011;36385;51.644;7.098;2022-11-18T07:47:49;9.23;;;5.20;;
50459;SDS011;36385;51.644;7.098;2022-11-18T07:50:15;11.57;;;5.45;;
50459;SDS011;36385;51.644;7.098;2022-11-18T07:52:42;14.07;;;6.00;;
50459;SDS011;36385;51.644;7.098;2022-11-18T07:55:08;10.57;;;5.50;;
50459;SDS011;36385;51.644;7.098;2022-11-18T07:57:34;11.25;;;5.65;;
50459;SDS011;36385;51.644;7.098;2022-11-18T07:59:59;12.55;;;5.40;;
50459;SDS011;36385;51.644;7.098;2022-11-18T08:02:25;9.73;;;5.28;;
50459;SDS011;36385;51.644;7.098;2022-11-18T08:04:50;11.88;;;5.28;;
50459;SDS011;36385;51.644;7.098;2022-11-18T08:07:16;8.82;;;4.80;;
50459;SDS011;36385;51.644;7.098;2022-11-18T08:09:42;10.52;;;5.20;;
50459;SDS011;36385;51.644;7.098;2022-11-18T08:12:07;11.68;;;5.07;;
50459;SDS011;36385;51.644;7.098;2022-11-18T08:14:33;11.77;;;5.38;;
50459;SDS011;36385;51.644;7.098;2022-11-18T08:16:58;10.27;;;5.10;;
50459;SDS011;36385;51.644;7.098;2022-11-18T08:19:24;10.15;;;5.13;;
50459;SDS011;36385;51.644;7.098;2022-11-18T08:21:50;9.52;;;5.05;;
50459;SDS011;36385;51.644;7.098;2022-11-18T08:24:15;11.77;;;5.13;;
50459;SDS011;36385;51.644;7.098;2022-11-18T08:26:41;13.48;;;5.43;;
50459;SDS011;36385;51.644;7.098;2022-11-18T08:29:07;11.32;;;5.30;;
50459;SDS011;36385;51.644;7.098;2022-11-18T08:31:32;9.38;;;5.28;;
50459;SDS011;36385;51.644;7.098;2022-11-18T08:33:58;12.35;;;5.32;;
50459;SDS011;36385;51.644;7.098;2022-11-18T08:36:27;12.55;;;5.25;;
50459;SDS011;36385;51.644;7.098;2022-11-18T08:38:55;12.80;;;5.40;;
50459;SDS011;36385;51.644;7.098;2022-11-18T08:41:24;10.55;;;5.75;;
50459;SDS011;36385;51.644;7.098;2022-11-18T08:43:51;12.27;;;5.43;;
50459;SDS011;36385;51.644;7.098;2022-11-18T08:46:17;11.70;;;5.35;;
50459;SDS011;36385;51.644;7.098;2022-11-18T08:48:43;10.90;;;5.32;;
50459;SDS011;36385;51.644;7.098;2022-11-18T08:51:09;13.95;;;5.85;;
50459;SDS011;36385;51.644;7.098;2022-11-18T08:53:36;14.93;;;6.20;;
50459;SDS011;36385;51.644;7.098;2022-11-18T08:56:01;9.75;;;5.40;;
50459;SDS011;36385;51.644;7.098;2022-11-18T08:58:27;11.45;;;5.93;;
50459;SDS011;36385;51.644;7.098;2022-11-18T09:00:53;10.85;;;5.80;;
50459;SDS011;36385;51.644;7.098;2022-11-18T09:03:19;11.02;;;5.65;;
50459;SDS011;36385;51.644;7.098;2022-11-18T09:05:45;11.32;;;5.60;;
50459;SDS011;36385;51.644;7.098;2022-11-18T09:08:11;11.82;;;5.70;;
50459;SDS011;36385;51.644;7.098;2022-11-18T09:10:37;10.27;;;5.45;;
50459;SDS011;36385;51.644;7.098;2022-11-18T09:13:03;12.60;;;5.68;;
50459;SDS011;36385;51.644;7.098;2022-11-18T09:15:29;12.73;;;5.63;;
50459;SDS011;36385;51.644;7.098;2022-11-18T09:17:55;11.13;;;5.40;;
50459;SDS011;36385;51.644;7.098;2022-11-18T09:20:21;12.63;;;5.30;;
50459;SDS011;36385;51.644;7.098;2022-11-18T09:22:47;11.18;;;5.97;;
50459;SDS011;36385;51.644;7.098;2022-11-18T09:25:13;12.15;;;6.38;;
50459;SDS011;36385;51.644;7.098;2022-11-18T09:27:39;12.00;;;6.13;;
50459;SDS011;36385;51.644;7.098;2022-11-18T09:30:05;11.45;;;6.40;;
50459;SDS011;36385;51.644;7.098;2022-11-18T09:32:31;11.65;;;5.90;;
50459;SDS011;36385;51.644;7.098;2022-11-18T09:34:58;10.52;;;5.70;;
50459;SDS011;36385;51.644;7.098;2022-11-18T09:37:23;12.60;;;6.20;;
50459;SDS011;36385;51.644;7.098;2022-11-18T09:39:49;12.95;;;6.45;;
50459;SDS011;36385;51.644;7.098;2022-11-18T09:48:03;10.93;;;5.68;;
50459;SDS011;36385;51.644;7.098;2022-11-18T09:50:40;11.75;;;6.30;;
50459;SDS011;36385;51.644;7.098;2022-11-18T09:53:10;9.57;;;5.30;;
50459;SDS011;36385;51.644;7.098;2022-11-18T09:55:43;9.82;;;5.28;;
50459;SDS011;36385;51.644;7.098;2022-11-18T09:58:52;11.43;;;6.13;;
50459;SDS011;36385;51.644;7.098;2022-11-18T10:00:59;12.93;;;6.00;;
50459;SDS011;36385;51.644;7.098;2022-11-18T10:03:27;12.30;;;6.25;;
50459;SDS011;36385;51.644;7.098;2022-11-18T10:06:03;11.93;;;6.53;;
50459;SDS011;36385;51.644;7.098;2022-11-18T10:18:47;15.05;;;7.80;;
50459;SDS011;36385;51.644;7.098;2022-11-18T10:21:20;13.48;;;7.97;;
50459;SDS011;36385;51.644;7.098;2022-11-18T10:24:00;15.60;;;8.75;;
50459;SDS011;36385;51.644;7.098;2022-11-18T10:26:31;14.13;;;9.07;;
50459;SDS011;36385;51.644;7.098;2022-11-18T10:29:02;14.05;;;8.68;;
50459;SDS011;36385;51.644;7.098;2022-11-18T10:31:31;16.00;;;9.52;;
50459;SDS011;36385;51.644;7.098;2022-11-18T10:33:59;15.20;;;9.07;;
50459;SDS011;36385;51.644;7.098;2022-11-18T10:36:27;13.70;;;8.52;;
50459;SDS011;36385;51.644;7.098;2022-11-18T10:39:04;15.48;;;9.07;;
50459;SDS011;36385;51.644;7.098;2022-11-18T10:41:36;17.13;;;9.10;;
50459;SDS011;36385;51.644;7.098;2022-11-18T10:44:08;16.60;;;10.07;;
50459;SDS011;36385;51.644;7.098;2022-11-18T10:46:52;19.30;;;10.20;;
50459;SDS011;36385;51.644;7.098;2022-11-18T10:49:18;18.90;;;10.45;;
50459;SDS011;36385;51.644;7.098;2022-11-18T10:54:28;17.73;;;10.77;;
50459;SDS011;36385;51.644;7.098;2022-11-18T10:57:00;19.58;;;10.93;;
50459;SDS011;36385;51.644;7.098;2022-11-18T11:04:43;15.52;;;9.35;;
50459;SDS011;36385;51.644;7.098;2022-11-18T11:15:34;19.30;;;11.85;;
50459;SDS011;36385;51.644;7.098;2022-11-18T11:18:05;17.17;;;10.93;;
50459;SDS011;36385;51.644;7.098;2022-11-18T11:21:02;16.60;;;10.98;;
50459;SDS011;36385;51.644;7.098;2022-11-18T11:23:32;18.70;;;11.40;;
50459;SDS011;36385;51.644;7.098;2022-11-18T11:25:59;20.38;;;11.98;;
50459;SDS011;36385;51.644;7.098;2022-11-18T11:28:37;21.95;;;11.57;;
50459;SDS011;36385;51.644;7.098;2022-11-18T11:32:03;18.98;;;11.57;;
50459;SDS011;36385;51.644;7.098;2022-11-18T11:46:27;16.83;;;10.38;;
50459;SDS011;36385;51.644;7.098;2022-11-18T11:52:27;20.13;;;9.63;;
50459;SDS011;36385;51.644;7.098;2022-11-18T11:55:20;19.10;;;11.02;;
50459;SDS011;36385;51.644;7.098;2022-11-18T12:00:26;20.05;;;11.50;;
50459;SDS011;36385;51.644;7.098;2022-11-18T12:06:01;22.40;;;13.00;;
50459;SDS011;36385;51.644;7.098;2022-11-18T12:08:29;24.33;;;13.95;;
50459;SDS011;36385;51.644;7.098;2022-11-18T12:11:02;26.55;;;14.05;;
50459;SDS011;36385;51.644;7.098;2022-11-18T12:19:22;21.10;;;12.82;;
50459;SDS011;36385;51.644;7.098;2022-11-18T12:29:43;22.75;;;13.50;;
50459;SDS011;36385;51.644;7.098;2022-11-18T12:32:53;22.08;;;14.05;;
50459;SDS011;36385;51.644;7.098;2022-11-18T12:35:24;20.35;;;13.25;;
50459;SDS011;36385;51.644;7.098;2022-11-18T12:38:00;22.60;;;12.52;;
50459;SDS011;36385;51.644;7.098;2022-11-18T12:46:09;18.85;;;10.98;;
50459;SDS011;36385;51.644;7.098;2022-11-18T12:48:50;18.35;;;10.75;;
50459;SDS011;36385;51.644;7.098;2022-11-18T12:53:49;16.25;;;10.15;;
50459;SDS011;36385;51.644;7.098;2022-11-18T13:01:22;16.42;;;10.00;;
50459;SDS011;36385;51.644;7.098;2022-11-18T13:03:49;17.73;;;10.18;;
50459;SDS011;36385;51.644;7.098;2022-11-18T13:06:33;17.25;;;10.13;;
50459;SDS011;36385;51.644;7.098;2022-11-18T13:09:22;15.93;;;9.98;;
50459;SDS011;36385;51.644;7.098;2022-11-18T13:11:53;18.48;;;11.20;;
50459;SDS011;36385;51.644;7.098;2022-11-18T13:22:55;20.83;;;11.77;;
50459;SDS011;36385;51.644;7.098;2022-11-18T13:25:41;17.27;;;11.75;;
50459;SDS011;36385;51.644;7.098;2022-11-18T13:28:31;21.10;;;12.35;;
50459;SDS011;36385;51.644;7.098;2022-11-18T13:33:55;19.17;;;11.68;;
50459;SDS011;36385;51.644;7.098;2022-11-18T13:36:32;17.27;;;10.68;;
50459;SDS011;36385;51.644;7.098;2022-11-18T13:39:03;19.85;;;10.18;;
50459;SDS011;36385;51.644;7.098;2022-11-18T13:41:31;17.25;;;9.57;;
50459;SDS011;36385;51.644;7.098;2022-11-18T13:44:17;18.52;;;10.23;;
50459;SDS011;36385;51.644;7.098;2022-11-18T13:46:51;18.45;;;9.82;;
50459;SDS011;36385;51.644;7.098;2022-11-18T13:49:27;17.52;;;10.02;;
50459;SDS011;36385;51.644;7.098;2022-11-18T13:52:10;17.08;;;9.18;;
50459;SDS011;36385;51.644;7.098;2022-11-18T13:55:06;14.73;;;9.05;;
50459;SDS011;36385;51.644;7.098;2022-11-18T13:57:39;17.13;;;9.00;;
50459;SDS011;36385;51.644;7.098;2022-11-18T14:00:07;17.42;;;8.90;;
50459;SDS011;36385;51.644;7.098;2022-11-18T14:02:46;17.38;;;9.10;;
50459;SDS011;36385;51.644;7.098;2022-11-18T14:05:18;16.60;;;9.27;;
50459;SDS011;36385;51.644;7.098;2022-11-18T14:07:55;14.80;;;8.48;;
50459;SDS011;36385;51.644;7.098;2022-11-18T14:10:29;14.02;;;7.60;;
50459;SDS011;36385;51.644;7.098;2022-11-18T14:13:25;13.25;;;7.25;;
50459;SDS011;36385;51.644;7.098;2022-11-18T14:15:53;14.27;;;7.53;;
50459;SDS011;36385;51.644;7.098;2022-11-18T14:21:01;14.20;;;7.53;;
50459;SDS011;36385;51.644;7.098;2022-11-18T14:23:29;12.82;;;6.43;;
50459;SDS011;36385;51.644;7.098;2022-11-18T14:25:58;14.10;;;7.10;;
50459;SDS011;36385;51.644;7.098;2022-11-18T14:28:26;12.38;;;7.25;;
50459;SDS011;36385;51.644;7.098;2022-11-18T14:31:04;15.80;;;7.60;;
50459;SDS011;36385;51.644;7.098;2022-11-18T14:33:36;13.13;;;7.47;;
50459;SDS011;36385;51.644;7.098;2022-11-18T14:36:10;13.40;;;7.82;;
50459;SDS011;36385;51.644;7.098;2022-11-18T14:38:40;14.20;;;7.55;;
50459;SDS011;36385;51.644;7.098;2022-11-18T14:41:11;14.52;;;8.23;;
50459;SDS011;36385;51.644;7.098;2022-11-18T14:43:38;14.68;;;7.95;;
50459;SDS011;36385;51.644;7.098;2022-11-18T14:46:12;16.85;;;8.38;;
50459;SDS011;36385;51.644;7.098;2022-11-18T14:48:42;13.95;;;8.20;;
50459;SDS011;36385;51.644;7.098;2022-11-18T14:51:12;15.88;;;8.88;;
50459;SDS011;36385;51.644;7.098;2022-11-18T14:53:39;16.08;;;8.65;;
50459;SDS011;36385;51.644;7.098;2022-11-18T14:56:07;16.83;;;9.63;;
50459;SDS011;36385;51.644;7.098;2022-11-18T14:58:45;19.45;;;10.88;;
50459;SDS011;36385;51.644;7.098;2022-11-18T15:01:10;20.75;;;13.60;;
50459;SDS011;36385;51.644;7.098;2022-11-18T15:03:37;29.08;;;16.08;;
50459;SDS011;36385;51.644;7.098;2022-11-18T15:06:03;24.85;;;14.95;;
50459;SDS011;36385;51.644;7.098;2022-11-18T15:08:35;23.90;;;15.10;;
50459;SDS011;36385;51.644;7.098;2022-11-18T15:11:01;26.65;;;15.52;;
50459;SDS011;36385;51.644;7.098;2022-11-18T15:13:26;23.52;;;14.55;;
50459;SDS011;36385;51.644;7.098;2022-11-18T15:15:52;23.60;;;14.45;;
50459;SDS011;36385;51.644;7.098;2022-11-18T15:18:18;24.00;;;13.88;;
50459;SDS011;36385;51.644;7.098;2022-11-18T15:20:44;20.95;;;13.05;;
50459;SDS011;36385;51.644;7.098;2022-11-18T15:23:09;18.85;;;11.77;;
50459;SDS011;36385;51.644;7.098;2022-11-18T15:25:35;18.83;;;12.13;;
50459;SDS011;36385;51.644;7.098;2022-11-18T15:28:01;21.30;;;12.32;;
50459;SDS011;36385;51.644;7.098;2022-11-18T15:30:26;18.17;;;11.23;;
50459;SDS011;36385;51.644;7.098;2022-11-18T15:32:52;20.63;;;11.50;;
50459;SDS011;36385;51.644;7.098;2022-11-18T15:35:17;21.95;;;12.55;;
50459;SDS011;36385;51.644;7.098;2022-11-18T15:37:43;18.60;;;12.43;;
50459;SDS011;36385;51.644;7.098;2022-11-18T15:40:09;26.15;;;15.68;;
50459;SDS011;36385;51.644;7.098;2022-11-18T15:42:35;27.15;;;16.80;;
50459;SDS011;36385;51.644;7.098;2022-11-18T15:45:01;30.63;;;18.13;;
50459;SDS011;36385;51.644;7.098;2022-11-18T15:47:27;25.60;;;16.05;;
50459;SDS011;36385;51.644;7.098;2022-11-18T15:49:56;29.52;;;16.80;;
50459;SDS011;36385;51.644;7.098;2022-11-18T15:52:21;27.27;;;16.40;;
50459;SDS011;36385;51.644;7.098;2022-11-18T15:54:47;27.77;;;16.80;;
50459;SDS011;36385;51.644;7.098;2022-11-18T15:57:13;28.73;;;17.23;;
50459;SDS011;36385;51.644;7.098;2022-11-18T15:59:38;34.28;;;18.85;;
50459;SDS011;36385;51.644;7.098;2022-11-18T16:02:04;33.25;;;19.65;;
50459;SDS011;36385;51.644;7.098;2022-11-18T16:04:33;31.30;;;19.58;;
50459;SDS011;36385;51.644;7.098;2022-11-18T16:07:01;32.17;;;19.80;;
50459;SDS011;36385;51.644;7.098;2022-11-18T16:09:27;33.92;;;20.48;;
50459;SDS011;36385;51.644;7.098;2022-11-18T16:12:13;35.53;;;21.48;;
50459;SDS011;36385;51.644;7.098;2022-11-18T16:14:57;39.33;;;23.33;;
50459;SDS011;36385;51.644;7.098;2022-11-18T16:17:42;39.63;;;21.60;;
50459;SDS011;36385;51.644;7.098;2022-11-18T16:20:08;37.85;;;21.95;;
50459;SDS011;36385;51.644;7.098;2022-11-18T16:22:34;39.00;;;21.60;;
50459;SDS011;36385;51.644;7.098;2022-11-18T16:24:59;36.70;;;21.35;;
50459;SDS011;36385;51.644;7.098;2022-11-18T16:27:28;37.55;;;20.30;;
50459;SDS011;36385;51.644;7.098;2022-11-18T16:29:54;36.67;;;20.13;;
50459;SDS011;36385;51.644;7.098;2022-11-18T16:32:20;34.80;;;19.13;;
50459;SDS011;36385;51.644;7.098;2022-11-18T16:34:45;34.45;;;19.52;;
50459;SDS011;36385;51.644;7.098;2022-11-18T16:37:11;35.67;;;19.10;;
50459;SDS011;36385;51.644;7.098;2022-11-18T16:39:36;31.80;;;17.35;;
50459;SDS011;36385;51.644;7.098;2022-11-18T16:42:02;29.77;;;16.17;;
50459;SDS011;36385;51.644;7.098;2022-11-18T16:44:28;29.52;;;16.27;;
50459;SDS011;36385;51.644;7.098;2022-11-18T16:46:54;28.33;;;16.50;;